createdAt,value
2022-11-16T00:02:07.659Z,9.30
2022-11-16T00:04:34.599Z,9.30
2022-11-16T00:07:04.728Z,9.30
2022-11-16T00:09:32.675Z,9.30
2022-11-16T00:12:04.219Z,9.30
2022-11-16T00:14:34.580Z,9.40
2022-11-16T00:17:02.755Z,9.30
2022-11-16T00:19:29.817Z,9.20
2022-11-16T00:21:56.774Z,9.30
2022-11-16T00:24:24.027Z,9.30
2022-11-16T00:26:53.073Z,9.30
2022-11-16T00:29:25.644Z,9.30
2022-11-16T00:31:54.073Z,9.30
2022-11-16T00:34:22.313Z,9.30
2022-11-16T00:36:49.882Z,9.30
2022-11-16T00:39:18.444Z,9.20
2022-11-16T00:41:45.817Z,9.20
2022-11-16T00:44:13.409Z,9.20
2022-11-16T00:46:40.638Z,9.20
2022-11-16T00:49:08.224Z,9.20
2022-11-16T00:51:36.351Z,9.20
2022-11-16T00:54:05.990Z,9.20
2022-11-16T00:56:33.046Z,9.20
2022-11-16T00:58:59.929Z,9.20
2022-11-16T01:01:26.993Z,9.20
2022-11-16T01:03:54.079Z,9.20
2022-11-16T01:06:23.307Z,9.30
2022-11-16T01:08:50.564Z,9.30
2022-11-16T01:11:37.692Z,9.20
2022-11-16T01:14:08.168Z,9.20
2022-11-16T01:16:35.756Z,9.30
2022-11-16T01:19:03.891Z,9.30
2022-11-16T01:21:30.724Z,9.30
2022-11-16T01:23:57.556Z,9.30
2022-11-16T01:26:25.148Z,9.30
2022-11-16T01:28:52.775Z,9.30
2022-11-16T01:31:20.085Z,9.30
2022-11-16T01:33:46.953Z,9.30
2022-11-16T01:36:15.197Z,9.40
2022-11-16T01:38:47.060Z,9.30
2022-11-16T01:41:22.574Z,9.40
2022-11-16T01:44:33.998Z,9.30
2022-11-16T01:47:09.659Z,9.40
2022-11-16T01:49:43.374Z,9.40
2022-11-16T01:52:16.666Z,9.40
2022-11-16T01:54:47.078Z,9.40
2022-11-16T01:57:24.102Z,9.40
2022-11-16T01:59:57.679Z,9.50
2022-11-16T02:02:24.717Z,9.50
2022-11-16T02:04:54.870Z,9.50
2022-11-16T02:08:19.521Z,9.50
2022-11-16T02:11:19.356Z,9.50
2022-11-16T02:14:01.871Z,9.50
2022-11-16T02:17:09.703Z,9.60
2022-11-16T02:20:11.929Z,9.60
2022-11-16T02:23:16.505Z,9.60
2022-11-16T02:26:01.091Z,9.60
2022-11-16T02:28:42.841Z,9.60
2022-11-16T02:31:23.094Z,9.50
2022-11-16T02:33:54.022Z,9.60
2022-11-16T02:36:25.062Z,9.60
2022-11-16T02:39:02.612Z,9.50
2022-11-16T02:41:36.218Z,9.60
2022-11-16T02:44:12.053Z,9.50
2022-11-16T02:46:44.291Z,9.50
2022-11-16T02:49:18.461Z,9.50
2022-11-16T02:51:48.188Z,9.50
2022-11-16T02:54:19.531Z,9.50
2022-11-16T02:57:17.114Z,9.50
2022-11-16T02:59:52.790Z,9.50
2022-11-16T03:02:50.371Z,9.50
2022-11-16T03:05:37.609Z,9.50
2022-11-16T03:08:24.055Z,9.50
2022-11-16T03:11:22.075Z,9.50
2022-11-16T03:13:50.812Z,9.60
2022-11-16T03:16:30.178Z,9.60
2022-11-16T03:19:02.101Z,9.60
2022-11-16T03:21:50.566Z,9.60
2022-11-16T03:24:17.677Z,9.60
2022-11-16T03:27:23.734Z,9.50
2022-11-16T03:30:08.695Z,9.60
2022-11-16T03:32:56.202Z,9.50
2022-11-16T03:36:07.394Z,9.50
2022-11-16T03:38:38.130Z,9.60
2022-11-16T03:41:09.635Z,9.60
2022-11-16T03:43:39.631Z,9.60
2022-11-16T03:46:07.434Z,9.70
2022-11-16T03:48:37.102Z,9.60
2022-11-16T03:51:05.895Z,9.60
2022-11-16T03:53:32.734Z,9.60
2022-11-16T03:55:59.526Z,9.60
2022-11-16T03:58:26.267Z,9.70
2022-11-16T04:00:53.770Z,9.80
2022-11-16T04:03:21.302Z,9.70
2022-11-16T04:06:07.506Z,9.70
2022-11-16T04:08:52.786Z,9.70
2022-11-16T04:11:41.240Z,9.70
2022-11-16T04:14:42.927Z,9.70
2022-11-16T04:17:33.064Z,9.70
2022-11-16T04:20:18.538Z,9.70
2022-11-16T04:23:14.035Z,9.70
2022-11-16T04:25:43.637Z,9.70
2022-11-16T04:28:13.751Z,9.70
2022-11-16T04:31:16.512Z,9.70
2022-11-16T04:34:02.219Z,9.70
2022-11-16T04:36:47.572Z,9.80
2022-11-16T04:39:14.658Z,9.80
2022-11-16T04:42:00.061Z,9.70
2022-11-16T04:44:46.795Z,9.70
2022-11-16T04:47:13.587Z,9.80
2022-11-16T04:49:40.313Z,9.80
2022-11-16T04:52:07.093Z,9.70
2022-11-16T04:54:33.874Z,9.70
2022-11-16T04:57:00.739Z,9.70
2022-11-16T04:59:27.532Z,9.70
2022-11-16T05:02:09.749Z,9.60
2022-11-16T05:04:42.628Z,9.70
2022-11-16T05:07:12.940Z,9.70
2022-11-16T05:09:43.114Z,9.70
2022-11-16T05:12:12.256Z,9.70
2022-11-16T05:14:39.008Z,9.70
2022-11-16T05:17:05.894Z,9.70
2022-11-16T05:19:51.411Z,9.80
2022-11-16T05:22:18.214Z,9.80
2022-11-16T05:24:45.425Z,9.80
2022-11-16T05:27:17.191Z,9.80
2022-11-16T05:29:44.419Z,9.70
2022-11-16T05:32:13.240Z,9.70
2022-11-16T05:34:40.312Z,9.70
2022-11-16T05:37:07.321Z,9.70
2022-11-16T05:39:34.248Z,9.70
2022-11-16T05:42:01.374Z,9.70
2022-11-16T05:44:28.185Z,9.70
2022-11-16T05:46:56.091Z,9.70
2022-11-16T05:49:23.827Z,9.70
2022-11-16T05:51:51.101Z,9.70
2022-11-16T05:54:24.746Z,9.70
2022-11-16T05:56:52.946Z,9.60
2022-11-16T05:59:22.021Z,9.70
2022-11-16T06:01:50.216Z,9.60
2022-11-16T06:04:24.022Z,9.70
2022-11-16T06:06:50.845Z,9.70
2022-11-16T06:09:17.697Z,9.70
2022-11-16T06:11:44.645Z,9.70
2022-11-16T06:14:11.455Z,9.70
2022-11-16T06:16:38.256Z,9.60
2022-11-16T06:19:05.048Z,9.60
2022-11-16T06:21:32.964Z,9.60
2022-11-16T06:23:59.737Z,9.60
2022-11-16T06:26:26.503Z,9.50
2022-11-16T06:28:54.926Z,9.50
2022-11-16T06:31:22.086Z,9.50
2022-11-16T06:33:48.828Z,9.60
2022-11-16T06:36:15.563Z,9.50
2022-11-16T06:38:42.336Z,9.60
2022-11-16T06:41:09.164Z,9.60
2022-11-16T06:43:36.046Z,9.60
2022-11-16T06:46:02.906Z,9.60
2022-11-16T06:48:31.086Z,9.60
2022-11-16T06:50:57.939Z,9.60
2022-11-16T06:53:28.933Z,9.60
2022-11-16T06:56:01.248Z,9.50
2022-11-16T06:58:31.714Z,9.40
2022-11-16T07:01:07.178Z,9.30
2022-11-16T07:03:34.085Z,9.20
2022-11-16T07:06:09.979Z,9.10
2022-11-16T07:08:37.295Z,9.00
2022-11-16T07:11:06.742Z,8.90
2022-11-16T07:13:35.364Z,8.90
2022-11-16T07:16:05.711Z,8.80
2022-11-16T07:18:35.585Z,8.90
2022-11-16T07:21:15.447Z,8.90
2022-11-16T07:23:42.852Z,9.00
2022-11-16T07:26:10.928Z,9.10
2022-11-16T07:28:39.976Z,9.20
2022-11-16T07:32:16.031Z,9.30
2022-11-16T07:34:42.848Z,9.30
2022-11-16T07:37:09.678Z,9.30
2022-11-16T07:39:36.456Z,9.30
2022-11-16T07:42:03.284Z,9.30
2022-11-16T07:44:30.045Z,9.20
2022-11-16T07:46:56.830Z,9.20
2022-11-16T07:49:23.626Z,9.10
2022-11-16T07:51:50.397Z,9.00
2022-11-16T07:54:17.273Z,8.90
2022-11-16T07:56:44.107Z,8.90
2022-11-16T07:59:11.047Z,8.80
2022-11-16T08:01:37.943Z,8.80
2022-11-16T08:04:04.805Z,8.80
2022-11-16T08:06:32.497Z,8.90
2022-11-16T08:08:59.600Z,9.00
2022-11-16T08:11:27.422Z,9.00
2022-11-16T08:13:54.228Z,9.00
2022-11-16T08:16:23.093Z,9.00
2022-11-16T08:18:50.266Z,9.00
2022-11-16T08:21:19.061Z,9.00
2022-11-16T08:23:46.580Z,8.90
2022-11-16T08:26:19.605Z,8.90
2022-11-16T08:28:50.892Z,9.00
2022-11-16T08:31:27.971Z,9.00
2022-11-16T08:33:55.488Z,9.00
2022-11-16T08:36:22.618Z,9.00
2022-11-16T08:38:51.697Z,8.90
2022-11-16T08:41:19.974Z,8.90
2022-11-16T08:43:47.409Z,8.90
2022-11-16T08:46:14.926Z,8.90
2022-11-16T08:48:42.122Z,8.90
2022-11-16T08:51:17.872Z,8.90
2022-11-16T08:53:47.990Z,8.80
2022-11-16T08:56:16.951Z,8.90
2022-11-16T08:58:46.341Z,8.90
2022-11-16T09:01:17.698Z,8.90
2022-11-16T09:03:45.598Z,9.00
2022-11-16T09:06:13.441Z,8.90
2022-11-16T09:08:43.130Z,8.90
2022-11-16T09:11:13.823Z,9.00
2022-11-16T09:13:40.700Z,9.20
2022-11-16T09:16:08.045Z,9.70
2022-11-16T09:18:35.672Z,10.50
2022-11-16T09:21:02.871Z,11.10
2022-11-16T09:23:29.652Z,11.40
2022-11-16T09:26:00.109Z,11.60
2022-11-16T09:28:27.274Z,11.60
2022-11-16T09:30:54.026Z,11.50
2022-11-16T09:33:20.822Z,11.40
2022-11-16T09:35:48.127Z,11.40
2022-11-16T09:38:20.735Z,11.50
2022-11-16T09:40:53.700Z,11.50
2022-11-16T09:43:51.610Z,11.60
2022-11-16T09:46:47.271Z,11.60
2022-11-16T09:49:21.304Z,11.60
2022-11-16T09:51:55.118Z,11.40
2022-11-16T09:54:32.710Z,11.20
2022-11-16T09:57:10.964Z,11.10
2022-11-16T09:59:48.436Z,11.00
2022-11-16T10:02:40.104Z,10.80
2022-11-16T10:05:27.113Z,10.60
2022-11-16T10:08:13.705Z,10.60
2022-11-16T10:10:50.101Z,10.40
2022-11-16T10:13:45.258Z,10.20
2022-11-16T10:16:32.199Z,10.00
2022-11-16T10:19:34.096Z,9.90
2022-11-16T10:22:23.814Z,9.80
2022-11-16T10:24:57.714Z,9.70
2022-11-16T10:27:58.847Z,9.70
2022-11-16T10:30:25.728Z,9.80
2022-11-16T10:33:09.683Z,9.80
2022-11-16T10:35:52.828Z,9.80
2022-11-16T10:38:25.905Z,9.70
2022-11-16T10:41:04.176Z,9.70
2022-11-16T10:43:33.351Z,9.70
2022-11-16T10:46:30.954Z,9.70
2022-11-16T10:49:39.927Z,9.70
2022-11-16T10:52:06.973Z,9.70
2022-11-16T10:54:33.737Z,9.70
2022-11-16T10:57:08.787Z,9.70
2022-11-16T10:59:42.993Z,9.60
2022-11-16T11:02:25.109Z,9.60
2022-11-16T11:05:05.203Z,9.60
2022-11-16T11:07:37.726Z,9.60
2022-11-16T11:10:06.749Z,9.60
2022-11-16T11:12:39.355Z,9.60
2022-11-16T11:15:10.922Z,9.60
2022-11-16T11:17:47.756Z,9.60
2022-11-16T11:20:17.475Z,9.60
2022-11-16T11:23:04.589Z,9.60
2022-11-16T11:25:41.154Z,9.60
2022-11-16T11:28:36.535Z,9.70
2022-11-16T11:31:11.623Z,9.70
2022-11-16T11:33:49.074Z,9.70
2022-11-16T11:36:41.982Z,9.80
2022-11-16T11:39:35.164Z,9.80
2022-11-16T11:42:23.770Z,9.80
2022-11-16T11:44:58.660Z,9.90
2022-11-16T11:48:02.189Z,9.90
2022-11-16T11:51:14.979Z,9.90
2022-11-16T11:53:59.761Z,10.00
2022-11-16T11:56:30.598Z,10.00
2022-11-16T11:58:58.170Z,10.10
2022-11-16T12:01:37.622Z,10.20
2022-11-16T12:04:39.763Z,10.20
2022-11-16T12:07:47.275Z,10.30
2022-11-16T12:10:41.646Z,10.40
2022-11-16T12:13:40.194Z,10.50
2022-11-16T12:16:27.382Z,10.70
2022-11-16T12:19:30.541Z,10.80
2022-11-16T12:22:20.977Z,10.90
2022-11-16T12:25:15.063Z,11.00
2022-11-16T12:28:04.051Z,11.20
2022-11-16T12:30:38.263Z,11.20
2022-11-16T12:33:29.097Z,11.30
2022-11-16T12:36:21.204Z,11.30
2022-11-16T12:39:21.406Z,11.40
2022-11-16T12:42:54.401Z,11.50
2022-11-16T12:45:58.961Z,11.50
2022-11-16T12:48:51.931Z,11.70
2022-11-16T12:51:57.591Z,11.80
2022-11-16T12:55:24.682Z,11.90
2022-11-16T12:57:52.221Z,11.80
2022-11-16T13:00:20.319Z,11.80
2022-11-16T13:03:17.741Z,11.70
2022-11-16T13:06:02.072Z,11.60
2022-11-16T13:08:49.812Z,11.50
2022-11-16T13:11:42.196Z,11.50
2022-11-16T13:14:20.184Z,11.70
2022-11-16T13:16:49.012Z,11.70
2022-11-16T13:19:18.069Z,11.70
2022-11-16T13:22:09.636Z,11.60
2022-11-16T13:25:02.572Z,11.60
2022-11-16T13:28:10.952Z,11.40
2022-11-16T13:30:58.979Z,11.40
2022-11-16T13:33:50.968Z,11.40
2022-11-16T13:36:43.251Z,11.50
2022-11-16T13:39:21.860Z,11.40
2022-11-16T13:42:11.718Z,11.30
2022-11-16T13:44:39.112Z,11.40
2022-11-16T13:47:27.510Z,11.40
2022-11-16T13:50:05.632Z,11.30
2022-11-16T13:55:43.994Z,11.30
2022-11-16T13:58:21.852Z,11.30
2022-11-16T14:01:10.548Z,11.30
2022-11-16T14:03:40.438Z,11.20
2022-11-16T14:06:29.928Z,11.20
2022-11-16T14:08:58.577Z,11.10
2022-11-16T14:11:39.512Z,11.10
2022-11-16T14:14:12.977Z,11.00
2022-11-16T14:16:50.119Z,11.10
2022-11-16T14:19:47.305Z,11.00
2022-11-16T14:22:42.480Z,11.00
2022-11-16T14:25:34.562Z,10.90
2022-11-16T14:28:32.221Z,10.90
2022-11-16T14:31:17.861Z,11.00
2022-11-16T14:33:52.305Z,10.90
2022-11-16T14:36:43.221Z,10.90
2022-11-16T14:39:30.557Z,10.80
2022-11-16T14:42:05.143Z,10.70
2022-11-16T14:44:38.965Z,10.60
2022-11-16T14:47:26.367Z,10.50
2022-11-16T14:49:55.186Z,10.50
2022-11-16T14:52:44.822Z,10.40
2022-11-16T14:55:24.571Z,10.40
2022-11-16T14:58:21.103Z,10.40
2022-11-16T15:01:02.019Z,10.40
2022-11-16T15:03:36.304Z,10.30
2022-11-16T15:06:07.116Z,10.10
2022-11-16T15:08:59.417Z,10.00
2022-11-16T15:11:49.900Z,9.80
2022-11-16T15:14:22.173Z,9.70
2022-11-16T15:16:55.133Z,9.60
2022-11-16T15:19:23.645Z,9.60
2022-11-16T15:21:59.814Z,9.70
2022-11-16T15:24:33.795Z,9.70
2022-11-16T15:27:40.951Z,9.70
2022-11-16T15:30:25.274Z,9.60
2022-11-16T15:32:53.556Z,9.70
2022-11-16T15:35:32.721Z,9.70
2022-11-16T15:38:02.576Z,9.70
2022-11-16T15:40:30.582Z,9.70
2022-11-16T15:43:01.310Z,9.70
2022-11-16T15:45:29.717Z,9.60
2022-11-16T15:48:00.348Z,9.60
2022-11-16T15:50:28.028Z,9.60
2022-11-16T15:52:55.820Z,9.60
2022-11-16T15:55:24.488Z,9.60
2022-11-16T15:58:14.364Z,9.60
2022-11-16T16:00:42.530Z,9.50
2022-11-16T16:03:29.895Z,9.50
2022-11-16T16:05:57.224Z,9.40
2022-11-16T16:08:39.535Z,9.40
2022-11-16T16:11:28.449Z,9.40
2022-11-16T16:14:02.127Z,9.40
2022-11-16T16:16:38.091Z,9.40
2022-11-16T16:19:40.255Z,9.40
2022-11-16T16:22:27.817Z,9.40
2022-11-16T16:24:55.343Z,9.40
2022-11-16T16:27:26.231Z,9.50
2022-11-16T16:29:57.207Z,9.50
2022-11-16T16:32:33.656Z,9.40
2022-11-16T16:35:07.295Z,9.40
2022-11-16T16:37:36.048Z,9.40
2022-11-16T16:40:03.793Z,9.40
2022-11-16T16:42:30.588Z,9.40
2022-11-16T16:45:00.294Z,9.50
2022-11-16T16:47:27.172Z,9.50
2022-11-16T16:49:54.099Z,9.40
2022-11-16T16:52:21.118Z,9.50
2022-11-16T16:54:47.929Z,9.50
2022-11-16T16:57:18.568Z,9.40
2022-11-16T16:59:45.863Z,9.40
2022-11-16T17:02:13.582Z,9.40
2022-11-16T17:04:41.024Z,9.40
2022-11-16T17:07:07.828Z,9.40
2022-11-16T17:09:34.684Z,9.30
2022-11-16T17:12:01.735Z,9.30
2022-11-16T17:14:28.535Z,9.40
2022-11-16T17:16:55.259Z,9.30
2022-11-16T17:19:22.064Z,9.30
2022-11-16T17:21:50.635Z,9.30
2022-11-16T17:24:17.535Z,9.30
2022-11-16T17:26:48.140Z,9.20
2022-11-16T17:29:15.514Z,9.20
2022-11-16T17:31:44.106Z,9.20
2022-11-16T17:34:13.705Z,9.30
2022-11-16T17:36:42.135Z,9.30
2022-11-16T17:39:09.181Z,9.30
2022-11-16T17:41:36.142Z,9.30
2022-11-16T17:44:03.674Z,9.20
2022-11-16T17:46:30.712Z,9.20
2022-11-16T17:48:57.518Z,9.20
2022-11-16T17:51:26.226Z,9.10
2022-11-16T17:53:53.982Z,9.10
2022-11-16T17:56:26.079Z,9.00
2022-11-16T17:58:54.977Z,9.00
2022-11-16T18:01:22.995Z,8.90
2022-11-16T18:03:49.996Z,8.90
2022-11-16T18:06:21.159Z,9.00
2022-11-16T18:08:48.519Z,9.00
2022-11-16T18:11:19.283Z,8.90
2022-11-16T18:13:47.463Z,8.90
2022-11-16T18:16:23.927Z,8.90
2022-11-16T18:18:58.023Z,8.90
2022-11-16T18:21:25.467Z,8.90
2022-11-16T18:23:52.394Z,8.90
2022-11-16T18:26:22.453Z,8.90
2022-11-16T18:28:51.209Z,8.90
2022-11-16T18:31:21.271Z,8.80
2022-11-16T18:33:51.138Z,8.80
2022-11-16T18:36:20.344Z,8.70
2022-11-16T18:38:47.468Z,8.70
2022-11-16T18:41:14.214Z,8.70
2022-11-16T18:43:48.479Z,8.70
2022-11-16T18:46:15.365Z,8.70
2022-11-16T18:48:43.300Z,8.60
2022-11-16T18:51:11.189Z,8.50
2022-11-16T18:53:38.454Z,8.40
2022-11-16T18:56:06.094Z,8.30
2022-11-16T18:58:49.864Z,8.10
2022-11-16T19:01:20.598Z,8.00
2022-11-16T19:03:47.960Z,7.90
2022-11-16T19:06:15.526Z,7.80
2022-11-16T19:08:43.001Z,7.70
2022-11-16T19:11:15.760Z,7.60
2022-11-16T19:13:44.995Z,7.60
2022-11-16T19:16:13.925Z,7.50
2022-11-16T19:18:40.887Z,7.50
2022-11-16T19:21:10.133Z,7.40
2022-11-16T19:23:39.579Z,7.40
2022-11-16T19:26:07.586Z,7.40
2022-11-16T19:28:39.258Z,7.40
2022-11-16T19:31:10.709Z,7.40
2022-11-16T19:33:38.814Z,7.40
2022-11-16T19:36:11.163Z,7.50
2022-11-16T19:38:38.847Z,7.50
2022-11-16T19:41:07.873Z,7.60
2022-11-16T19:43:35.340Z,7.70
2022-11-16T19:46:07.982Z,7.80
2022-11-16T19:48:35.725Z,7.80
2022-11-16T19:51:16.169Z,7.90
2022-11-16T19:53:43.070Z,7.90
2022-11-16T19:56:15.926Z,7.90
2022-11-16T19:58:43.834Z,8.00
2022-11-16T20:01:14.914Z,8.10
2022-11-16T20:03:42.227Z,8.20
2022-11-16T20:06:24.750Z,8.10
2022-11-16T20:08:58.484Z,8.20
2022-11-16T20:11:28.567Z,8.20
2022-11-16T20:13:57.414Z,8.30
2022-11-16T20:16:29.332Z,8.30
2022-11-16T20:18:58.809Z,8.30
2022-11-16T20:21:34.941Z,8.40
2022-11-16T20:24:06.716Z,8.40
2022-11-16T20:26:36.386Z,8.50
2022-11-16T20:29:04.060Z,8.50
2022-11-16T20:31:33.304Z,8.60
2022-11-16T20:34:05.833Z,8.60
2022-11-16T20:36:37.107Z,8.70
2022-11-16T20:39:04.276Z,8.70
2022-11-16T20:41:33.734Z,8.70
2022-11-16T20:44:02.495Z,8.70
2022-11-16T20:46:33.333Z,8.70
2022-11-16T20:49:03.390Z,8.70
2022-11-16T20:51:30.476Z,8.70
2022-11-16T20:53:57.794Z,8.70
2022-11-16T20:56:24.880Z,8.70
2022-11-16T20:58:51.645Z,8.70
2022-11-16T21:01:33.833Z,8.80
2022-11-16T21:04:04.781Z,8.80
2022-11-16T21:06:33.150Z,8.80
2022-11-16T21:09:00.499Z,8.80
2022-11-16T21:11:30.786Z,8.80
2022-11-16T21:14:15.839Z,8.90
2022-11-16T21:16:43.238Z,8.90
2022-11-16T21:19:10.523Z,8.80
2022-11-16T21:21:38.629Z,8.80
2022-11-16T21:24:05.784Z,8.80
2022-11-16T21:26:33.750Z,8.70
2022-11-16T21:29:01.793Z,8.70
2022-11-16T21:31:36.995Z,8.60
2022-11-16T21:34:05.716Z,8.60
2022-11-16T21:36:33.621Z,8.60
2022-11-16T21:39:00.827Z,8.50
2022-11-16T21:41:28.396Z,8.50
2022-11-16T21:43:55.981Z,8.50
2022-11-16T21:46:25.901Z,8.40
2022-11-16T21:48:55.337Z,8.40
2022-11-16T21:51:26.706Z,8.40
2022-11-16T21:53:54.217Z,8.40
2022-11-16T21:56:24.765Z,8.50
2022-11-16T21:58:53.151Z,8.40
2022-11-16T22:01:21.880Z,8.40
2022-11-16T22:04:08.701Z,8.40
2022-11-16T22:06:54.201Z,8.40
2022-11-16T22:09:21.654Z,8.40
2022-11-16T22:11:48.416Z,8.40
2022-11-16T22:14:15.212Z,8.50
2022-11-16T22:16:42.010Z,8.50
2022-11-16T22:19:08.756Z,8.50
2022-11-16T22:21:35.488Z,8.50
2022-11-16T22:24:02.625Z,8.70
2022-11-16T22:26:29.570Z,8.60
2022-11-16T22:28:57.931Z,8.60
2022-11-16T22:31:24.756Z,8.60
2022-11-16T22:33:54.672Z,8.70
2022-11-16T22:36:21.480Z,8.70
2022-11-16T22:38:48.252Z,8.60
2022-11-16T22:41:15.036Z,8.60
2022-11-16T22:43:41.788Z,8.60
2022-11-16T22:46:10.853Z,8.60
2022-11-16T22:48:40.194Z,8.60
2022-11-16T22:51:21.916Z,8.60
2022-11-16T22:53:57.071Z,8.60
2022-11-16T22:56:24.506Z,8.50
2022-11-16T22:58:51.745Z,8.50
2022-11-16T23:01:19.414Z,8.50
2022-11-16T23:03:46.984Z,8.50
2022-11-16T23:06:14.234Z,8.50
2022-11-16T23:08:41.455Z,8.50
2022-11-16T23:11:38.306Z,8.50
2022-11-16T23:14:26.139Z,8.50
2022-11-16T23:16:53.016Z,8.50
2022-11-16T23:19:40.089Z,8.50
2022-11-16T23:22:30.697Z,8.50
2022-11-16T23:25:16.232Z,8.50
2022-11-16T23:28:12.879Z,8.50
2022-11-16T23:30:40.059Z,8.50
2022-11-16T23:33:07.321Z,8.40
2022-11-16T23:35:34.418Z,8.40
2022-11-16T23:38:05.004Z,8.40
2022-11-16T23:40:37.555Z,8.40
2022-11-16T23:43:24.609Z,8.40
2022-11-16T23:45:51.447Z,8.40
2022-11-16T23:48:19.602Z,8.40
2022-11-16T23:50:47.180Z,8.30
2022-11-16T23:53:14.458Z,8.30
2022-11-16T23:55:41.760Z,8.40
2022-11-16T23:58:14.794Z,8.40
